Montpelier, Vermont
Current Conditions -  °F | °C
As of 11:51 AM on Thursday 27 Nov 2014 (Local Time) from KMPV Reporting Station
Overcast Overcast  
Wind Chill: 18°   Ceiling: 1600
Heat Index: 25°   Visibility: 10mi
Dew Point: 21°   Wind: 6mph
Humidity: 85%   Direction: 320°NW
Pressure: 29.99"   Gusts: NA
Location:  44.26°N, 72.58°W
Report Text: KMPV 271651Z AUTO 32005KT 10SM OVC016 M04/M06 A2999 RMK AO2 SLP174 T10391061
Loading
Personal Weather Stations






























Interactive Weather Map New forecast layout! Learn more

10-Day Weather Forecast

Advertisements
Track Severe Weather on mobile